createdAt,value
2024-04-25T00:00:24.058Z,57.00
2024-04-25T00:01:14.137Z,56.87
2024-04-25T00:02:04.261Z,56.86
2024-04-25T00:02:54.401Z,56.93
2024-04-25T00:03:44.248Z,56.82
2024-04-25T00:04:34.310Z,56.70
2024-04-25T00:05:24.461Z,56.76
2024-04-25T00:06:14.379Z,56.84
2024-04-25T00:07:04.434Z,56.82
2024-04-25T00:07:54.471Z,56.84
2024-04-25T00:08:44.681Z,56.96
2024-04-25T00:09:34.564Z,56.99
2024-04-25T00:10:24.625Z,57.09
2024-04-25T00:11:14.708Z,56.98
2024-04-25T00:12:04.842Z,57.06
2024-04-25T00:12:54.742Z,57.04
2024-04-25T00:13:44.843Z,57.03
2024-04-25T00:14:35.054Z,57.14
2024-04-25T00:15:24.997Z,56.99
2024-04-25T00:16:14.983Z,57.06
2024-04-25T00:17:05.197Z,56.87
2024-04-25T00:17:55.123Z,57.07
2024-04-25T00:18:46.007Z,56.96
2024-04-25T00:19:35.189Z,57.01
2024-04-25T00:20:25.388Z,57.05
2024-04-25T00:21:15.272Z,57.03
2024-04-25T00:22:06.313Z,57.06
2024-04-25T00:22:55.408Z,57.16
2024-04-25T00:23:45.520Z,57.02
2024-04-25T00:24:35.551Z,56.94
2024-04-25T00:25:25.673Z,56.84
2024-04-25T00:26:15.681Z,56.93
2024-04-25T00:27:05.802Z,57.11
2024-04-25T00:27:55.749Z,57.02
2024-04-25T00:28:45.855Z,57.17
2024-04-25T00:29:35.965Z,57.08
2024-04-25T00:30:26.002Z,57.06
2024-04-25T00:31:16.050Z,57.16
2024-04-25T00:32:06.152Z,57.17
2024-04-25T00:32:56.294Z,57.21
2024-04-25T00:33:46.360Z,57.44
2024-04-25T00:34:36.298Z,57.24
2024-04-25T00:35:26.363Z,57.31
2024-04-25T00:36:16.380Z,57.38
2024-04-25T00:37:06.494Z,57.36
2024-04-25T00:37:56.482Z,57.45
2024-04-25T00:38:46.690Z,57.46
2024-04-25T00:39:36.620Z,57.33
2024-04-25T00:40:26.694Z,57.43
2024-04-25T00:41:16.818Z,57.33
2024-04-25T00:42:06.729Z,57.25
2024-04-25T00:42:56.767Z,57.19
2024-04-25T00:43:46.887Z,57.11
2024-04-25T00:44:36.987Z,57.24
2024-04-25T00:45:27.040Z,57.17
2024-04-25T00:46:17.030Z,57.15
2024-04-25T00:47:07.267Z,57.11
2024-04-25T00:47:57.282Z,57.16
2024-04-25T00:48:47.276Z,57.17
2024-04-25T00:49:37.277Z,57.08
2024-04-25T00:50:27.397Z,57.13
2024-04-25T00:51:17.371Z,57.16
2024-04-25T00:52:07.524Z,57.08
2024-04-25T00:52:57.508Z,57.20
2024-04-25T00:53:47.707Z,57.19
2024-04-25T00:54:37.626Z,57.05
2024-04-25T00:55:27.721Z,56.97
2024-04-25T00:56:17.726Z,57.09
2024-04-25T00:57:08.843Z,57.23
2024-04-25T00:57:57.868Z,57.27
2024-04-25T00:58:47.917Z,57.20
2024-04-25T00:59:38.018Z,57.12
2024-04-25T01:00:28.067Z,57.17
2024-04-25T01:01:18.015Z,57.23
2024-04-25T01:02:08.114Z,57.31
2024-04-25T01:02:58.263Z,57.20
2024-04-25T01:03:48.314Z,57.33
2024-04-25T01:04:38.312Z,57.32
2024-04-25T01:05:28.483Z,57.35
2024-04-25T01:06:18.367Z,57.22
2024-04-25T01:07:08.469Z,57.21
2024-04-25T01:07:58.502Z,57.28
2024-04-25T01:08:48.604Z,57.34
2024-04-25T01:09:38.646Z,57.38
2024-04-25T01:10:28.748Z,57.49
2024-04-25T01:11:18.765Z,57.44
2024-04-25T01:12:08.963Z,57.55
2024-04-25T01:12:58.874Z,57.41
2024-04-25T01:13:48.948Z,57.59
2024-04-25T01:14:39.039Z,57.45
2024-04-25T01:15:29.099Z,57.56
2024-04-25T01:16:19.031Z,57.50
2024-04-25T01:17:09.180Z,57.38
2024-04-25T01:17:59.201Z,57.52
2024-04-25T01:18:49.297Z,57.41
2024-04-25T01:19:39.256Z,57.51
2024-04-25T01:20:29.390Z,57.57
2024-04-25T01:21:19.313Z,57.42
2024-04-25T01:22:09.497Z,57.55
2024-04-25T01:22:59.425Z,57.50
2024-04-25T01:23:49.535Z,57.58
2024-04-25T01:24:39.587Z,57.55
2024-04-25T01:25:29.693Z,57.31
2024-04-25T01:26:19.699Z,57.24
2024-04-25T01:27:09.853Z,57.34
2024-04-25T01:27:59.838Z,57.38
2024-04-25T01:28:49.983Z,57.45
2024-04-25T01:29:40.034Z,57.41
2024-04-25T01:30:30.033Z,57.42
2024-04-25T01:31:20.054Z,57.47
2024-04-25T01:32:10.205Z,57.45
2024-04-25T01:33:00.300Z,57.35
2024-04-25T01:33:50.468Z,57.39
2024-04-25T01:34:40.309Z,57.36
2024-04-25T01:35:30.453Z,57.41
2024-04-25T01:36:20.363Z,57.34
2024-04-25T01:37:10.515Z,57.33
2024-04-25T01:38:01.369Z,57.28
2024-04-25T01:38:50.564Z,57.30
2024-04-25T01:39:40.594Z,57.28
2024-04-25T01:40:30.725Z,57.30
2024-04-25T01:41:20.761Z,57.35
2024-04-25T01:42:10.860Z,57.45
2024-04-25T01:43:00.804Z,57.53
2024-04-25T01:43:50.903Z,57.25
2024-04-25T01:44:40.973Z,57.33
2024-04-25T01:45:31.135Z,57.39
2024-04-25T01:46:21.059Z,57.32
2024-04-25T01:47:11.247Z,57.48
2024-04-25T01:48:01.242Z,57.47
2024-04-25T01:48:51.360Z,57.45
2024-04-25T01:49:41.284Z,57.39
2024-04-25T01:50:31.449Z,57.42
2024-04-25T01:51:21.355Z,57.56
2024-04-25T01:52:11.564Z,57.47
2024-04-25T01:53:01.491Z,57.45
2024-04-25T01:53:51.611Z,57.46
2024-04-25T01:54:41.626Z,57.40
2024-04-25T01:55:31.745Z,57.40
2024-04-25T01:56:21.764Z,57.40
2024-04-25T01:57:11.787Z,57.48
2024-04-25T01:58:01.820Z,57.48
2024-04-25T01:58:51.939Z,57.67
2024-04-25T01:59:41.974Z,57.54
2024-04-25T02:00:32.083Z,57.51
2024-04-25T02:01:22.034Z,57.47
2024-04-25T02:02:12.165Z,57.57
2024-04-25T02:03:02.217Z,57.54
2024-04-25T02:03:52.280Z,57.58
2024-04-25T02:04:42.242Z,57.68
2024-04-25T02:05:32.382Z,57.53
2024-04-25T02:06:22.330Z,57.50
2024-04-25T02:07:12.533Z,57.45
2024-04-25T02:08:02.412Z,57.55
2024-04-25T02:08:52.569Z,57.52
2024-04-25T02:09:42.555Z,57.40
2024-04-25T02:10:32.676Z,57.50
2024-04-25T02:11:22.760Z,57.57
2024-04-25T02:12:12.924Z,57.53
2024-04-25T02:13:02.794Z,57.56
2024-04-25T02:13:52.971Z,57.70
2024-04-25T02:14:42.944Z,57.57
2024-04-25T02:15:33.010Z,57.62
2024-04-25T02:16:23.040Z,57.63
2024-04-25T02:17:13.218Z,57.51
2024-04-25T02:18:03.356Z,57.57
2024-04-25T02:18:53.399Z,57.56
2024-04-25T02:19:43.311Z,57.55
2024-04-25T02:20:33.449Z,57.52
2024-04-25T02:21:23.406Z,57.50
2024-04-25T02:22:13.516Z,57.54
2024-04-25T02:23:03.532Z,57.51
2024-04-25T02:23:53.656Z,57.55
2024-04-25T02:24:43.660Z,57.58
2024-04-25T02:25:33.812Z,57.57
2024-04-25T02:26:23.857Z,57.56
2024-04-25T02:27:13.852Z,57.63
2024-04-25T02:28:03.875Z,57.58
2024-04-25T02:28:54.005Z,57.65
2024-04-25T02:29:43.990Z,57.61
2024-04-25T02:30:34.052Z,57.64
2024-04-25T02:31:24.074Z,57.59
2024-04-25T02:32:14.300Z,57.59
2024-04-25T02:33:04.318Z,57.71
2024-04-25T02:33:54.344Z,57.80
2024-04-25T02:34:44.348Z,57.70
2024-04-25T02:35:34.518Z,57.74
2024-04-25T02:36:24.432Z,57.74
2024-04-25T02:37:14.540Z,57.82
2024-04-25T02:38:04.671Z,57.68
2024-04-25T02:38:54.692Z,57.53
2024-04-25T02:39:44.724Z,57.50
2024-04-25T02:40:34.851Z,57.56
2024-04-25T02:41:24.849Z,57.43
2024-04-25T02:42:14.984Z,57.51
2024-04-25T02:43:04.972Z,57.59
2024-04-25T02:43:55.129Z,57.64
2024-04-25T02:44:45.114Z,57.63
2024-04-25T02:45:35.179Z,57.55
2024-04-25T02:46:25.201Z,57.67
2024-04-25T02:47:15.400Z,57.62
2024-04-25T02:48:05.480Z,57.61
2024-04-25T02:48:55.657Z,57.62
2024-04-25T02:49:45.466Z,57.58
2024-04-25T02:50:35.598Z,57.44
2024-04-25T02:51:25.543Z,57.59
2024-04-25T02:52:15.669Z,57.69
2024-04-25T02:53:05.723Z,57.73
2024-04-25T02:53:55.828Z,57.57
2024-04-25T02:54:45.802Z,57.67
2024-04-25T02:55:35.863Z,57.71
2024-04-25T02:56:25.915Z,57.52
2024-04-25T02:57:16.047Z,57.63
2024-04-25T02:58:05.956Z,57.60
2024-04-25T02:58:56.065Z,57.46
2024-04-25T02:59:46.111Z,57.54
2024-04-25T03:00:36.263Z,57.57
2024-04-25T03:01:26.186Z,57.65
2024-04-25T03:02:16.340Z,57.67
2024-04-25T03:03:06.356Z,57.69
2024-04-25T03:03:56.373Z,57.64
2024-04-25T03:04:46.406Z,57.74
2024-04-25T03:05:36.516Z,57.76
2024-04-25T03:06:26.455Z,57.79
2024-04-25T03:07:16.629Z,57.84
2024-04-25T03:08:06.573Z,58.13
2024-04-25T03:08:56.642Z,57.95
2024-04-25T03:09:46.703Z,57.77
2024-04-25T03:10:36.799Z,57.38
2024-04-25T03:11:26.805Z,57.44
2024-04-25T03:12:16.977Z,57.54
2024-04-25T03:13:06.893Z,57.63
2024-04-25T03:13:57.022Z,57.52
2024-04-25T03:14:47.099Z,57.58
2024-04-25T03:15:37.132Z,57.57
2024-04-25T03:16:27.171Z,57.58
2024-04-25T03:17:17.383Z,57.62
2024-04-25T03:18:07.439Z,57.65
2024-04-25T03:18:57.550Z,57.66
2024-04-25T03:19:47.424Z,57.74
2024-04-25T03:20:37.546Z,57.68
2024-04-25T03:21:27.466Z,57.83
2024-04-25T03:22:17.649Z,57.64
2024-04-25T03:23:07.655Z,57.66
2024-04-25T03:23:57.668Z,57.72
2024-04-25T03:24:47.697Z,57.72
2024-04-25T03:25:37.832Z,57.74
2024-04-25T03:26:27.874Z,57.65
2024-04-25T03:27:17.963Z,57.52
2024-04-25T03:28:07.900Z,57.64
2024-04-25T03:28:58.014Z,57.66
2024-04-25T03:29:48.053Z,57.71
2024-04-25T03:30:38.164Z,57.63
2024-04-25T03:31:28.141Z,57.65
2024-04-25T03:32:18.444Z,57.59
2024-04-25T03:33:08.427Z,57.66
2024-04-25T03:33:58.360Z,57.83
2024-04-25T03:34:48.407Z,57.84
2024-04-25T03:35:38.541Z,57.92
2024-04-25T03:36:28.534Z,57.78
2024-04-25T03:37:18.657Z,57.84
2024-04-25T03:38:08.642Z,57.79
2024-04-25T03:38:58.699Z,57.88
2024-04-25T03:39:48.710Z,57.81
2024-04-25T03:40:38.853Z,57.86
2024-04-25T03:41:28.904Z,57.78
2024-04-25T03:42:18.891Z,57.84
2024-04-25T03:43:08.917Z,57.85
2024-04-25T03:43:59.042Z,57.87
2024-04-25T03:44:49.049Z,57.84
2024-04-25T03:45:39.093Z,57.95
2024-04-25T03:46:29.115Z,57.97
2024-04-25T03:47:19.278Z,57.96
2024-04-25T03:48:09.360Z,57.77
2024-04-25T03:48:59.488Z,57.82
2024-04-25T03:49:49.354Z,57.84
2024-04-25T03:50:39.523Z,57.81
2024-04-25T03:51:29.450Z,57.91
2024-04-25T03:52:19.582Z,57.87
2024-04-25T03:53:12.565Z,57.84
2024-04-25T03:53:59.733Z,57.80
2024-04-25T03:54:49.742Z,57.75
2024-04-25T03:55:39.879Z,57.76
2024-04-25T03:56:29.851Z,57.76
2024-04-25T03:57:19.931Z,57.73
2024-04-25T03:58:09.947Z,57.84
2024-04-25T03:59:00.091Z,57.87
2024-04-25T03:59:50.113Z,58.08
2024-04-25T04:00:40.114Z,58.12
2024-04-25T04:01:30.141Z,58.19
2024-04-25T04:02:20.336Z,58.08
2024-04-25T04:03:10.534Z,58.07
2024-04-25T04:04:00.395Z,58.02
2024-04-25T04:04:50.377Z,58.04
2024-04-25T04:05:40.558Z,58.04
2024-04-25T04:06:30.530Z,58.16
2024-04-25T04:07:20.606Z,58.22
2024-04-25T04:08:10.575Z,58.16
2024-04-25T04:09:00.655Z,58.12
2024-04-25T04:09:50.731Z,58.07
2024-04-25T04:10:40.799Z,58.26
2024-04-25T04:11:30.853Z,58.15
2024-04-25T04:12:20.853Z,58.30
2024-04-25T04:13:10.901Z,58.35
2024-04-25T04:14:00.999Z,58.29
2024-04-25T04:14:51.063Z,58.24
2024-04-25T04:15:41.148Z,58.23
2024-04-25T04:16:31.127Z,58.04
2024-04-25T04:17:21.195Z,58.04
2024-04-25T04:18:11.281Z,58.19
2024-04-25T04:19:01.341Z,58.27
2024-04-25T04:19:51.324Z,58.21
2024-04-25T04:20:41.411Z,58.18
2024-04-25T04:21:31.434Z,58.14
2024-04-25T04:22:21.575Z,58.12
2024-04-25T04:23:11.647Z,57.96
2024-04-25T04:24:01.689Z,58.01
2024-04-25T04:24:51.710Z,57.96
2024-04-25T04:25:41.844Z,58.03
2024-04-25T04:26:31.849Z,58.00
2024-04-25T04:27:21.875Z,58.01
2024-04-25T04:28:15.456Z,57.90
2024-04-25T04:29:01.931Z,58.07
2024-04-25T04:29:51.970Z,58.04
2024-04-25T04:30:42.096Z,57.99
2024-04-25T04:31:32.056Z,58.01
2024-04-25T04:32:22.271Z,58.03
2024-04-25T04:33:12.391Z,58.01
2024-04-25T04:34:02.477Z,57.99
2024-04-25T04:34:52.335Z,57.98
2024-04-25T04:35:42.447Z,57.98
2024-04-25T04:36:32.417Z,57.92
2024-04-25T04:37:22.580Z,58.00
2024-04-25T04:38:12.529Z,57.95
2024-04-25T04:39:02.610Z,58.03
2024-04-25T04:39:52.655Z,57.97
2024-04-25T04:40:42.825Z,57.96
2024-04-25T04:41:32.757Z,57.91
2024-04-25T04:42:22.813Z,58.08
2024-04-25T04:43:12.845Z,57.93
2024-04-25T04:44:03.915Z,58.03
2024-04-25T04:44:53.072Z,58.01
2024-04-25T04:45:43.108Z,58.00
2024-04-25T04:46:33.039Z,57.87
2024-04-25T04:47:23.208Z,57.91
2024-04-25T04:48:19.694Z,57.78
2024-04-25T04:49:04.316Z,57.88
2024-04-25T04:49:53.424Z,57.69
2024-04-25T04:50:43.428Z,57.72
2024-04-25T04:51:33.423Z,57.73
2024-04-25T04:52:23.451Z,57.90
2024-04-25T04:53:13.614Z,57.85
2024-04-25T04:54:03.568Z,57.54
2024-04-25T04:54:53.772Z,57.59
2024-04-25T04:55:43.733Z,57.79
2024-04-25T04:56:33.923Z,57.71
2024-04-25T04:57:23.863Z,57.75
2024-04-25T04:58:14.015Z,57.82
2024-04-25T04:59:04.012Z,58.01
2024-04-25T04:59:54.185Z,57.98
2024-04-25T05:00:44.172Z,57.93
2024-04-25T05:01:34.326Z,58.06
2024-04-25T05:02:24.332Z,58.02
2024-04-25T05:03:14.528Z,58.16
2024-04-25T05:04:04.394Z,57.96
2024-04-25T05:04:54.537Z,57.81
2024-04-25T05:05:44.556Z,57.75
2024-04-25T05:06:34.654Z,57.93
2024-04-25T05:07:24.635Z,57.97
2024-04-25T05:08:14.834Z,57.70
2024-04-25T05:09:04.843Z,57.81
2024-04-25T05:09:54.895Z,57.70
2024-04-25T05:10:44.840Z,57.74
2024-04-25T05:11:34.969Z,57.82
2024-04-25T05:12:26.580Z,57.90
2024-04-25T05:13:15.042Z,57.74
2024-04-25T05:14:05.055Z,57.65
2024-04-25T05:14:55.221Z,57.71
2024-04-25T05:15:45.239Z,57.75
2024-04-25T05:16:35.357Z,57.88
2024-04-25T05:17:25.349Z,57.93
2024-04-25T05:18:15.410Z,57.91
2024-04-25T05:19:05.414Z,57.95
2024-04-25T05:19:55.563Z,58.06
2024-04-25T05:20:45.608Z,58.00
2024-04-25T05:21:35.585Z,57.84
2024-04-25T05:22:25.609Z,57.85
2024-04-25T05:23:15.740Z,57.88
2024-04-25T05:24:05.680Z,57.83
2024-04-25T05:24:55.817Z,57.95
2024-04-25T05:25:45.802Z,57.97
2024-04-25T05:26:35.963Z,58.08
2024-04-25T05:27:25.924Z,58.07
2024-04-25T05:28:16.073Z,58.05
2024-04-25T05:29:06.054Z,58.07
2024-04-25T05:29:56.156Z,58.00
2024-04-25T05:30:46.157Z,57.95
2024-04-25T05:31:36.274Z,57.82
2024-04-25T05:32:26.334Z,57.86
2024-04-25T05:33:16.573Z,57.87
2024-04-25T05:34:06.497Z,57.86
2024-04-25T05:34:56.493Z,57.91
2024-04-25T05:35:46.550Z,57.72
2024-04-25T05:36:36.614Z,57.70
2024-04-25T05:37:26.639Z,57.79
2024-04-25T05:38:16.818Z,57.94
2024-04-25T05:39:06.727Z,58.00
2024-04-25T05:39:56.840Z,58.07
2024-04-25T05:40:46.846Z,57.91
2024-04-25T05:41:37.017Z,57.83
2024-04-25T05:42:26.964Z,57.79
2024-04-25T05:43:17.109Z,57.84
2024-04-25T05:44:07.124Z,58.03
2024-04-25T05:44:57.203Z,58.17
2024-04-25T05:45:47.141Z,58.12
2024-04-25T05:46:37.309Z,58.12
2024-04-25T05:47:27.291Z,58.08
2024-04-25T05:48:18.532Z,57.97
2024-04-25T05:49:07.380Z,58.12
2024-04-25T05:49:58.564Z,58.14
2024-04-25T05:50:47.543Z,58.13
2024-04-25T05:51:37.537Z,58.28
2024-04-25T05:52:27.582Z,58.36
2024-04-25T05:53:17.702Z,58.34
2024-04-25T05:54:07.674Z,58.18
2024-04-25T05:54:57.741Z,58.29
2024-04-25T05:55:47.765Z,58.36
2024-04-25T05:56:37.945Z,58.36
2024-04-25T05:57:27.895Z,58.44
2024-04-25T05:58:18.039Z,58.34
2024-04-25T05:59:08.024Z,58.40
2024-04-25T05:59:58.181Z,58.41
2024-04-25T06:00:48.206Z,58.31
2024-04-25T06:01:38.222Z,58.19
2024-04-25T06:02:28.316Z,58.25
2024-04-25T06:03:18.477Z,58.41
2024-04-25T06:04:08.513Z,58.39
2024-04-25T06:04:58.419Z,58.51
2024-04-25T06:05:48.518Z,58.59
2024-04-25T06:06:38.570Z,58.66
2024-04-25T06:07:28.560Z,58.57
2024-04-25T06:08:18.755Z,58.53
2024-04-25T06:09:08.688Z,58.61
2024-04-25T06:09:58.762Z,58.43
2024-04-25T06:10:49.098Z,58.55
2024-04-25T06:11:39.112Z,58.53
2024-04-25T06:12:29.028Z,58.57
2024-04-25T06:13:19.093Z,58.74
2024-04-25T06:14:09.023Z,58.51
2024-04-25T06:14:59.100Z,58.56
2024-04-25T06:15:49.094Z,58.63
2024-04-25T06:16:39.186Z,58.74
2024-04-25T06:17:29.221Z,58.80
2024-04-25T06:18:19.548Z,58.88
2024-04-25T06:19:09.300Z,58.82
2024-04-25T06:19:59.453Z,58.80
2024-04-25T06:20:49.507Z,58.67
2024-04-25T06:21:39.515Z,58.60
2024-04-25T06:22:29.546Z,58.61
2024-04-25T06:23:19.699Z,58.51
2024-04-25T06:24:09.661Z,58.61
2024-04-25T06:24:59.795Z,58.64
2024-04-25T06:25:49.792Z,58.68
2024-04-25T06:26:39.987Z,58.68
2024-04-25T06:27:29.928Z,58.56
2024-04-25T06:28:19.998Z,58.35
2024-04-25T06:29:10.043Z,58.42
2024-04-25T06:30:00.260Z,58.48
2024-04-25T06:30:50.140Z,58.46
2024-04-25T06:31:40.353Z,58.40
2024-04-25T06:32:30.361Z,58.53
2024-04-25T06:33:20.378Z,58.49
2024-04-25T06:34:10.362Z,58.56
2024-04-25T06:35:00.525Z,58.55
2024-04-25T06:35:50.506Z,58.73
2024-04-25T06:36:40.631Z,58.73
2024-04-25T06:37:30.600Z,58.79
2024-04-25T06:38:20.698Z,58.77
2024-04-25T06:39:10.675Z,58.70
2024-04-25T06:40:00.841Z,58.74
2024-04-25T06:40:50.803Z,58.70
2024-04-25T06:41:46.913Z,58.66
2024-04-25T06:42:31.894Z,58.72
2024-04-25T06:43:21.031Z,58.75
2024-04-25T06:44:18.843Z,58.58
2024-04-25T06:45:02.167Z,58.66
2024-04-25T06:45:51.176Z,58.64
2024-04-25T06:46:41.159Z,58.55
2024-04-25T06:47:31.421Z,58.64
2024-04-25T06:48:21.660Z,58.61
2024-04-25T06:49:12.164Z,58.66
2024-04-25T06:50:01.425Z,58.71
2024-04-25T06:50:51.526Z,58.61
2024-04-25T06:51:41.509Z,58.53
2024-04-25T06:52:31.646Z,58.37
2024-04-25T06:53:21.603Z,58.48
2024-04-25T06:54:11.689Z,58.63
2024-04-25T06:55:01.707Z,58.55
2024-04-25T06:55:51.857Z,58.73
2024-04-25T06:56:41.869Z,58.99
2024-04-25T06:57:31.977Z,58.93
2024-04-25T06:58:21.970Z,58.79
2024-04-25T06:59:12.175Z,58.84
2024-04-25T07:00:02.211Z,58.76
2024-04-25T07:00:52.213Z,58.75
2024-04-25T07:01:42.194Z,58.61
2024-04-25T07:02:32.398Z,58.57
2024-04-25T07:03:22.341Z,58.59
2024-04-25T07:04:12.520Z,58.54
2024-04-25T07:05:02.461Z,58.65
2024-04-25T07:05:52.591Z,58.70
2024-04-25T07:06:42.583Z,58.89
2024-04-25T07:07:32.673Z,58.86
2024-04-25T07:08:22.717Z,58.60
2024-04-25T07:09:12.819Z,58.54
2024-04-25T07:10:02.797Z,58.48
2024-04-25T07:10:52.919Z,58.58
2024-04-25T07:11:42.960Z,58.49
2024-04-25T07:12:33.008Z,58.65
2024-04-25T07:13:23.028Z,58.60
2024-04-25T07:14:13.187Z,58.48
2024-04-25T07:15:03.184Z,58.30
2024-04-25T07:15:53.343Z,58.30
2024-04-25T07:16:43.362Z,58.36
2024-04-25T07:17:33.570Z,58.17
2024-04-25T07:18:23.473Z,58.18
2024-04-25T07:19:13.598Z,58.06
2024-04-25T07:20:03.574Z,57.96
2024-04-25T07:20:53.676Z,58.18
2024-04-25T07:21:50.412Z,58.20
2024-04-25T07:22:33.816Z,58.32
2024-04-25T07:23:23.868Z,58.24
2024-04-25T07:24:13.952Z,58.16
2024-04-25T07:25:03.940Z,58.22
2024-04-25T07:25:54.138Z,58.15
2024-04-25T07:26:44.126Z,58.25
2024-04-25T07:27:34.138Z,58.36
2024-04-25T07:28:24.124Z,58.18
2024-04-25T07:29:14.320Z,58.30
2024-04-25T07:30:04.309Z,58.37
2024-04-25T07:30:54.370Z,58.76
2024-04-25T07:31:44.401Z,58.55
2024-04-25T07:32:34.764Z,58.47
2024-04-25T07:33:24.670Z,58.31
2024-04-25T07:34:14.634Z,58.21
2024-04-25T07:35:04.649Z,58.21
2024-04-25T07:35:54.837Z,58.07
2024-04-25T07:36:44.740Z,57.86
2024-04-25T07:37:34.823Z,57.99
2024-04-25T07:38:24.972Z,57.87
2024-04-25T07:39:18.286Z,58.07
2024-04-25T07:40:06.113Z,58.43
2024-04-25T07:40:55.169Z,58.15
2024-04-25T07:41:45.273Z,58.16
2024-04-25T07:42:35.283Z,58.18
2024-04-25T07:43:25.256Z,58.56
2024-04-25T07:44:15.447Z,58.21
2024-04-25T07:45:05.368Z,58.06
2024-04-25T07:45:55.500Z,58.10
2024-04-25T07:46:45.478Z,58.09
2024-04-25T07:47:35.823Z,58.08
2024-04-25T07:48:25.788Z,57.95
2024-04-25T07:49:15.842Z,57.97
2024-04-25T07:50:05.759Z,58.09
2024-04-25T07:50:55.971Z,57.86
2024-04-25T07:51:45.855Z,57.87
2024-04-25T07:52:35.958Z,57.96
2024-04-25T07:53:26.022Z,58.16
2024-04-25T07:54:16.107Z,58.13
2024-04-25T07:55:06.201Z,57.95
2024-04-25T07:55:56.190Z,58.18
2024-04-25T07:56:46.221Z,58.13
2024-04-25T07:57:37.122Z,57.83
2024-04-25T07:58:26.258Z,57.79
2024-04-25T07:59:16.401Z,57.94
2024-04-25T08:00:06.375Z,58.10
2024-04-25T08:00:56.559Z,58.17
2024-04-25T08:01:46.479Z,57.96
2024-04-25T08:02:36.886Z,58.10
2024-04-25T08:03:26.825Z,58.28
2024-04-25T08:04:16.708Z,58.23
2024-04-25T08:05:06.750Z,57.97
2024-04-25T08:05:56.791Z,57.74
2024-04-25T08:06:46.755Z,57.91
2024-04-25T08:07:36.888Z,57.86
2024-04-25T08:08:26.934Z,57.84
2024-04-25T08:09:17.033Z,57.65
2024-04-25T08:10:07.018Z,57.08
2024-04-25T08:10:57.263Z,57.12
2024-04-25T08:11:47.189Z,57.49
2024-04-25T08:12:37.228Z,57.35
2024-04-25T08:13:27.277Z,57.48
2024-04-25T08:14:17.403Z,57.50
2024-04-25T08:15:07.371Z,57.44
2024-04-25T08:15:57.598Z,57.20
2024-04-25T08:16:47.531Z,57.42
2024-04-25T08:17:37.748Z,57.90
2024-04-25T08:18:27.664Z,58.22
2024-04-25T08:19:17.719Z,57.90
2024-04-25T08:20:07.771Z,57.44
2024-04-25T08:20:57.925Z,57.39
2024-04-25T08:21:47.847Z,57.58
2024-04-25T08:22:38.042Z,57.65
2024-04-25T08:23:28.019Z,57.28
2024-04-25T08:24:18.060Z,57.99
2024-04-25T08:25:08.086Z,57.65
2024-04-25T08:25:58.250Z,57.16
2024-04-25T08:26:48.289Z,57.33
2024-04-25T08:27:38.264Z,57.66
2024-04-25T08:28:28.297Z,57.64
2024-04-25T08:29:18.482Z,57.65
2024-04-25T08:30:08.413Z,57.58
2024-04-25T08:30:58.594Z,57.31
2024-04-25T08:31:48.507Z,57.36
2024-04-25T08:32:38.702Z,57.43
2024-04-25T08:33:28.813Z,57.56
2024-04-25T08:34:18.808Z,57.41
2024-04-25T08:35:08.784Z,57.44
2024-04-25T08:35:58.933Z,57.41
2024-04-25T08:36:48.881Z,57.57
2024-04-25T08:37:38.959Z,57.39
2024-04-25T08:38:29.017Z,57.63
2024-04-25T08:39:19.092Z,57.50
2024-04-25T08:40:09.084Z,57.40
2024-04-25T08:40:59.169Z,57.60
2024-04-25T08:41:49.205Z,57.62
2024-04-25T08:42:39.307Z,57.64
2024-04-25T08:43:29.278Z,57.57
2024-04-25T08:44:19.462Z,57.70
2024-04-25T08:45:09.430Z,57.91
2024-04-25T08:45:59.623Z,57.96
2024-04-25T08:46:49.595Z,57.93
2024-04-25T08:47:39.687Z,57.86
2024-04-25T08:48:29.721Z,57.68
2024-04-25T08:49:19.775Z,57.55
2024-04-25T08:50:09.827Z,57.41
2024-04-25T08:51:00.029Z,57.44
2024-04-25T08:51:49.892Z,57.29
2024-04-25T08:52:39.974Z,57.16
2024-04-25T08:53:30.108Z,57.19
2024-04-25T08:54:20.123Z,57.28
2024-04-25T08:55:10.067Z,57.23
2024-04-25T08:56:01.227Z,57.04
2024-04-25T08:56:50.250Z,57.25
2024-04-25T08:57:40.315Z,57.41
2024-04-25T08:58:30.367Z,57.52
2024-04-25T08:59:20.552Z,57.48
2024-04-25T09:00:10.455Z,57.65
2024-04-25T09:01:00.704Z,57.43
2024-04-25T09:01:50.612Z,57.40
2024-04-25T09:02:40.708Z,57.26
2024-04-25T09:03:30.834Z,57.09
2024-04-25T09:04:20.842Z,57.27
2024-04-25T09:05:10.816Z,57.01
2024-04-25T09:06:00.954Z,57.14
2024-04-25T09:06:50.935Z,57.10
2024-04-25T09:07:41.006Z,57.18
2024-04-25T09:08:31.049Z,56.95
2024-04-25T09:09:21.194Z,57.06
2024-04-25T09:10:11.255Z,57.11
2024-04-25T09:11:01.300Z,56.78
2024-04-25T09:11:51.379Z,56.82
2024-04-25T09:12:41.330Z,56.54
2024-04-25T09:13:31.405Z,57.03
2024-04-25T09:14:22.569Z,57.24
2024-04-25T09:15:11.495Z,56.76
2024-04-25T09:16:01.640Z,56.90
2024-04-25T09:16:51.795Z,56.77
2024-04-25T09:17:41.804Z,56.94
2024-04-25T09:18:31.776Z,57.05
2024-04-25T09:19:21.838Z,57.11
2024-04-25T09:20:11.875Z,56.91
2024-04-25T09:21:01.893Z,57.10
2024-04-25T09:21:51.914Z,56.99
2024-04-25T09:22:42.054Z,56.87
2024-04-25T09:23:32.060Z,56.77
2024-04-25T09:24:22.091Z,56.89
2024-04-25T09:25:12.135Z,56.63
2024-04-25T09:26:02.235Z,56.64
2024-04-25T09:26:52.266Z,56.89
2024-04-25T09:27:42.279Z,56.55
2024-04-25T09:28:37.199Z,56.75
2024-04-25T09:29:23.468Z,57.16
2024-04-25T09:30:12.450Z,57.25
2024-04-25T09:31:03.502Z,57.04
2024-04-25T09:31:52.565Z,57.03
2024-04-25T09:32:42.738Z,57.24
2024-04-25T09:33:32.773Z,57.05
2024-04-25T09:34:22.781Z,57.25
2024-04-25T09:35:12.810Z,57.32
2024-04-25T09:36:02.918Z,57.21
2024-04-25T09:36:52.863Z,57.37
2024-04-25T09:37:42.963Z,57.32
2024-04-25T09:38:32.948Z,57.33
2024-04-25T09:39:23.029Z,57.35
2024-04-25T09:40:13.165Z,57.37
2024-04-25T09:41:03.158Z,57.33
2024-04-25T09:41:53.162Z,57.34
2024-04-25T09:42:43.196Z,57.38
2024-04-25T09:43:33.229Z,57.34
2024-04-25T09:44:23.354Z,57.29
2024-04-25T09:45:13.399Z,57.27
2024-04-25T09:46:03.638Z,56.93
2024-04-25T09:46:53.603Z,56.74
2024-04-25T09:47:43.697Z,56.66
2024-04-25T09:48:33.676Z,56.28
2024-04-25T09:49:23.826Z,56.10
2024-04-25T09:50:13.786Z,56.10
2024-04-25T09:51:03.844Z,56.78
2024-04-25T09:51:53.845Z,55.95
2024-04-25T09:52:43.884Z,56.48
2024-04-25T09:53:36.468Z,56.95
2024-04-25T09:54:24.038Z,56.60
2024-04-25T09:55:14.073Z,56.59
2024-04-25T09:56:04.185Z,56.36
2024-04-25T09:56:54.218Z,56.28
2024-04-25T09:57:44.337Z,56.33
2024-04-25T09:58:34.277Z,56.66
2024-04-25T09:59:24.403Z,56.62
2024-04-25T10:00:14.420Z,56.63
2024-04-25T10:01:04.574Z,56.72
2024-04-25T10:01:54.615Z,56.77
2024-04-25T10:02:44.582Z,56.58
2024-04-25T10:03:34.674Z,56.32
2024-04-25T10:04:24.737Z,55.92
2024-04-25T10:05:14.734Z,55.86
2024-04-25T10:06:04.869Z,56.30
2024-04-25T10:06:54.877Z,57.03
2024-04-25T10:07:45.055Z,56.86
2024-04-25T10:08:35.546Z,57.04
2024-04-25T10:09:25.263Z,57.03
2024-04-25T10:10:15.306Z,56.85
2024-04-25T10:11:08.004Z,56.95
2024-04-25T10:11:55.552Z,56.94
2024-04-25T10:12:45.568Z,57.20
2024-04-25T10:13:35.555Z,57.28
2024-04-25T10:14:25.751Z,57.19
2024-04-25T10:15:15.662Z,57.45
2024-04-25T10:16:05.764Z,57.51
2024-04-25T10:16:55.824Z,57.42
2024-04-25T10:17:46.028Z,57.25
2024-04-25T10:18:36.060Z,57.33
2024-04-25T10:19:25.963Z,57.40
2024-04-25T10:20:16.037Z,57.51
2024-04-25T10:21:06.112Z,57.40
2024-04-25T10:21:56.111Z,57.70
2024-04-25T10:22:46.256Z,57.67
2024-04-25T10:23:36.290Z,57.95
2024-04-25T10:24:26.305Z,57.63
2024-04-25T10:25:16.610Z,57.66
2024-04-25T10:26:07.063Z,57.77
2024-04-25T10:26:56.432Z,57.77
2024-04-25T10:27:46.491Z,57.62
2024-04-25T10:28:36.491Z,57.83
2024-04-25T10:29:26.757Z,57.67
2024-04-25T10:30:16.614Z,57.54
2024-04-25T10:31:06.788Z,57.50
2024-04-25T10:31:56.732Z,57.56
2024-04-25T10:32:47.055Z,57.47
2024-04-25T10:33:36.881Z,57.22
2024-04-25T10:34:26.994Z,57.38
2024-04-25T10:35:16.994Z,57.44
2024-04-25T10:36:07.117Z,57.56
2024-04-25T10:36:57.049Z,57.59
2024-04-25T10:37:49.496Z,57.52
2024-04-25T10:38:38.283Z,57.75
2024-04-25T10:39:27.259Z,57.55
2024-04-25T10:40:17.262Z,57.43
2024-04-25T10:41:07.377Z,57.39
2024-04-25T10:41:57.465Z,57.31
2024-04-25T10:42:47.556Z,57.31
2024-04-25T10:43:37.499Z,57.29
2024-04-25T10:44:27.696Z,57.24